Time;durP1;ratioP1;P1;durP2;ratioP2;P2;SDS_P1;SDS_P2;PMS_P1;PMS_P2;Temp;Humidity;BMP_temperature;BMP_pressure;BME280_temperature;BME280_humidity;BME280_pressure;Samples;Min_cycle;Max_cycle;Signal;HPM_P1;HPM_P2
2023/05/29 00:00:31;;;;;;;2.63;1.50;;;;;;;;;;6234449;28;20292;-80
2023/05/29 00:03:38;;;;;;;4.95;1.42;;;;;;;;;;6233456;28;20408;-79
2023/05/29 00:06:44;;;;;;;3.80;1.20;;;;;;;;;;6234102;28;20297;-80
2023/05/29 00:09:49;;;;;;;2.55;1.20;;;;;;;;;;6233869;28;20309;-79
2023/05/29 00:12:55;;;;;;;3.15;1.23;;;;;;;;;;6209792;28;20316;-80
2023/05/29 00:16:03;;;;;;;1.20;1.20;;;;;;;;;;6211139;28;20293;-79
2023/05/29 00:19:11;;;;;;;2.45;1.17;;;;;;;;;;6210061;28;20289;-79
2023/05/29 00:22:17;;;;;;;1.25;1.25;;;;;;;;;;6209629;28;20296;-79
2023/05/29 00:25:22;;;;;;;1.20;1.20;;;;;;;;;;6214870;28;20291;-79
2023/05/29 00:28:28;;;;;;;1.15;1.15;;;;;;;;;;6233261;28;20296;-79
2023/05/29 00:31:33;;;;;;;1.40;1.40;;;;;;;;;;6232761;28;20581;-80
2023/05/29 00:34:39;;;;;;;1.35;1.20;;;;;;;;;;6232584;28;20300;-79
2023/05/29 00:37:45;;;;;;;1.13;1.13;;;;;;;;;;6232373;28;20291;-79
2023/05/29 00:40:50;;;;;;;1.20;1.20;;;;;;;;;;6233148;28;20292;-79
2023/05/29 00:43:55;;;;;;;1.67;1.40;;;;;;;;;;6233688;28;20304;-80
2023/05/29 00:47:00;;;;;;;1.35;1.35;;;;;;;;;;6232425;28;20357;-78
2023/05/29 00:50:08;;;;;;;1.30;1.30;;;;;;;;;;6233905;28;20354;-79
2023/05/29 00:53:13;;;;;;;1.25;1.25;;;;;;;;;;6232314;28;20304;-79
2023/05/29 00:56:20;;;;;;;1.20;1.20;;;;;;;;;;6234231;28;20288;-79
2023/05/29 00:59:27;;;;;;;1.17;1.10;;;;;;;;;;6233772;28;20459;-80
2023/05/29 01:02:32;;;;;;;1.40;1.40;;;;;;;;;;6233661;28;20288;-79
2023/05/29 01:05:40;;;;;;;1.30;1.30;;;;;;;;;;6234048;28;20288;-79
2023/05/29 01:08:45;;;;;;;1.20;1.20;;;;;;;;;;6236153;28;20297;-79
2023/05/29 01:12:00;;;;;;;2.95;1.20;;;;;;;;;;6221531;28;20335;-80
2023/05/29 01:15:26;;;;;;;1.40;1.20;;;;;;;;;;6208489;28;20321;-80
2023/05/29 01:18:39;;;;;;;5.00;1.50;;;;;;;;;;6205856;28;20593;-79
2023/05/29 01:21:57;;;;;;;1.13;1.13;;;;;;;;;;6214101;28;20487;-80
2023/05/29 01:25:14;;;;;;;3.00;1.35;;;;;;;;;;6215629;28;20465;-80
2023/05/29 01:28:22;;;;;;;1.10;1.10;;;;;;;;;;6237675;28;20488;-78
2023/05/29 01:31:28;;;;;;;2.05;1.27;;;;;;;;;;6236419;28;20577;-80
2023/05/29 01:34:35;;;;;;;1.60;1.23;;;;;;;;;;6238292;28;20296;-80
2023/05/29 01:37:40;;;;;;;1.20;1.20;;;;;;;;;;6237072;28;20284;-80
2023/05/29 01:40:46;;;;;;;7.95;1.52;;;;;;;;;;6238361;28;20418;-79
2023/05/29 01:43:53;;;;;;;2.25;1.20;;;;;;;;;;6237138;28;20360;-80
2023/05/29 01:46:59;;;;;;;1.85;1.30;;;;;;;;;;6237579;28;20297;-79
2023/05/29 01:50:06;;;;;;;1.48;1.33;;;;;;;;;;6237815;28;20320;-79
2023/05/29 01:53:15;;;;;;;1.10;1.10;;;;;;;;;;6237479;28;20311;-78
2023/05/29 01:56:21;;;;;;;1.10;1.10;;;;;;;;;;6235972;28;20300;-80
2023/05/29 01:59:28;;;;;;;1.30;1.20;;;;;;;;;;6235823;28;20300;-79
2023/05/29 02:02:34;;;;;;;1.20;1.20;;;;;;;;;;6235077;28;20292;-79
2023/05/29 02:05:39;;;;;;;1.23;1.13;;;;;;;;;;6236355;28;20316;-79
2023/05/29 02:08:44;;;;;;;1.30;1.20;;;;;;;;;;6238936;28;20304;-79
2023/05/29 02:11:49;;;;;;;1.02;1.02;;;;;;;;;;6220661;28;20289;-80
2023/05/29 02:14:56;;;;;;;1.08;1.08;;;;;;;;;;6211127;28;20297;-80
2023/05/29 02:18:01;;;;;;;1.02;1.02;;;;;;;;;;6210856;28;20293;-80
2023/05/29 02:21:07;;;;;;;2.85;0.90;;;;;;;;;;6211636;28;20297;-80
2023/05/29 02:24:13;;;;;;;3.72;0.90;;;;;;;;;;6211542;28;20296;-81
2023/05/29 02:27:19;;;;;;;1.25;1.10;;;;;;;;;;6231530;28;20292;-80
2023/05/29 02:30:25;;;;;;;0.90;0.90;;;;;;;;;;6235303;28;20540;-80
2023/05/29 02:33:31;;;;;;;1.00;1.00;;;;;;;;;;6236227;28;20540;-78
2023/05/29 02:36:37;;;;;;;0.80;0.80;;;;;;;;;;6235494;28;20292;-78
2023/05/29 02:39:42;;;;;;;1.77;1.05;;;;;;;;;;6235888;28;20296;-79
2023/05/29 02:42:47;;;;;;;0.90;0.90;;;;;;;;;;6236444;28;20293;-78
2023/05/29 02:45:54;;;;;;;0.70;0.70;;;;;;;;;;6236455;28;20438;-79
2023/05/29 02:48:59;;;;;;;0.80;0.80;;;;;;;;;;6235065;28;20296;-80
2023/05/29 02:52:05;;;;;;;0.98;0.90;;;;;;;;;;6234794;28;20292;-78
2023/05/29 02:55:11;;;;;;;0.90;0.90;;;;;;;;;;6235184;28;20291;-78
2023/05/29 02:58:17;;;;;;;0.80;0.70;;;;;;;;;;6234080;28;20616;-79
2023/05/29 03:01:23;;;;;;;0.90;0.90;;;;;;;;;;6225539;28;20297;-79
2023/05/29 03:04:29;;;;;;;1.00;1.00;;;;;;;;;;6217973;28;20604;-78
2023/05/29 03:07:34;;;;;;;1.55;0.80;;;;;;;;;;6224173;28;20265;-79
2023/05/29 03:10:40;;;;;;;0.90;0.90;;;;;;;;;;6213517;28;20572;-78
2023/05/29 03:13:46;;;;;;;0.80;0.80;;;;;;;;;;6209152;28;20149;-78
2023/05/29 03:16:53;;;;;;;1.40;1.10;;;;;;;;;;6210061;28;20285;-80
2023/05/29 03:19:58;;;;;;;1.98;0.80;;;;;;;;;;6217653;28;20293;-78
2023/05/29 03:23:04;;;;;;;0.93;0.93;;;;;;;;;;6235562;28;20296;-79
2023/05/29 03:26:12;;;;;;;0.98;0.90;;;;;;;;;;6233521;28;20309;-78
2023/05/29 03:29:20;;;;;;;0.90;0.90;;;;;;;;;;6233631;28;20347;-78
2023/05/29 03:32:27;;;;;;;1.35;0.90;;;;;;;;;;6237616;28;20292;-79
2023/05/29 03:35:55;;;;;;;1.15;0.80;;;;;;;;;;6227027;28;20312;-80
2023/05/29 03:39:00;;;;;;;1.00;1.00;;;;;;;;;;6201181;28;20323;-80
2023/05/29 03:42:06;;;;;;;1.85;0.93;;;;;;;;;;6200257;28;20298;-79
2023/05/29 03:45:12;;;;;;;1.15;1.08;;;;;;;;;;6186208;28;20297;-79
2023/05/29 03:48:20;;;;;;;1.60;0.90;;;;;;;;;;6201791;28;20293;-79
2023/05/29 03:51:26;;;;;;;1.30;0.88;;;;;;;;;;6200807;28;20379;-80
2023/05/29 03:54:33;;;;;;;1.45;0.90;;;;;;;;;;6200787;28;20306;-79
2023/05/29 03:57:41;;;;;;;2.97;1.10;;;;;;;;;;6185516;28;20289;-80
2023/05/29 04:00:47;;;;;;;1.00;0.75;;;;;;;;;;6186252;28;20318;-78
2023/05/29 04:03:56;;;;;;;1.08;0.80;;;;;;;;;;6184192;28;20313;-80
2023/05/29 04:07:01;;;;;;;1.33;0.93;;;;;;;;;;6186703;28;20293;-79
2023/05/29 04:10:07;;;;;;;2.92;1.10;;;;;;;;;;6187418;28;20464;-79
2023/05/29 04:13:13;;;;;;;0.90;0.90;;;;;;;;;;6185416;28;20305;-80
2023/05/29 04:16:19;;;;;;;0.82;0.82;;;;;;;;;;6184633;28;20306;-79
2023/05/29 04:19:27;;;;;;;2.90;1.10;;;;;;;;;;6184517;28;20297;-80
2023/05/29 04:22:32;;;;;;;3.28;0.80;;;;;;;;;;6184726;28;20262;-79
2023/05/29 04:25:37;;;;;;;0.90;0.90;;;;;;;;;;6185624;28;20306;-79
2023/05/29 04:28:43;;;;;;;1.35;1.00;;;;;;;;;;6200363;28;20286;-81
2023/05/29 04:31:51;;;;;;;1.23;1.10;;;;;;;;;;6184706;28;20306;-80
2023/05/29 04:35:01;;;;;;;1.05;1.05;;;;;;;;;;6185347;28;20297;-78
2023/05/29 04:38:14;;;;;;;1.08;1.08;;;;;;;;;;6185290;28;20293;-81
2023/05/29 04:41:19;;;;;;;1.70;1.02;;;;;;;;;;6184270;28;20317;-79
2023/05/29 04:44:25;;;;;;;1.50;0.95;;;;;;;;;;6200427;28;20293;-80
2023/05/29 04:47:32;;;;;;;2.92;1.10;;;;;;;;;;6184807;28;20351;-79
2023/05/29 04:50:39;;;;;;;1.30;1.00;;;;;;;;;;6184023;28;20305;-79
2023/05/29 04:53:44;;;;;;;1.20;1.10;;;;;;;;;;6202058;28;20445;-79
2023/05/29 04:56:50;;;;;;;1.00;1.00;;;;;;;;;;6205612;28;20302;-79
2023/05/29 04:59:57;;;;;;;2.00;0.98;;;;;;;;;;6188869;28;20301;-80
2023/05/29 05:03:03;;;;;;;1.17;1.08;;;;;;;;;;6205210;28;20313;-79
2023/05/29 05:06:12;;;;;;;2.72;1.20;;;;;;;;;;6188204;28;20451;-81
2023/05/29 05:09:18;;;;;;;1.10;1.10;;;;;;;;;;6205286;28;20293;-78
2023/05/29 05:12:23;;;;;;;1.38;1.20;;;;;;;;;;6210938;28;20601;-79
2023/05/29 05:15:30;;;;;;;3.75;1.55;;;;;;;;;;6213266;28;20237;-79
2023/05/29 05:18:37;;;;;;;0.93;0.93;;;;;;;;;;6213139;28;20288;-80
2023/05/29 05:21:46;;;;;;;1.67;1.20;;;;;;;;;;6213356;28;20294;-79
2023/05/29 05:24:54;;;;;;;1.35;1.25;;;;;;;;;;6214966;28;20312;-81
2023/05/29 05:28:02;;;;;;;;;;;;;;;;;;6213715;28;20407;-80
2023/05/29 05:31:11;;;;;;;;;;;;;;;;;;6213314;28;19989;-80
2023/05/29 05:34:17;;;;;;;;;;;;;;;;;;6212930;28;20004;-81
2023/05/29 05:37:24;;;;;;;;;;;;;;;;;;6214079;28;19988;-81
2023/05/29 05:40:29;;;;;;;;;;;;;;;;;;6211565;28;19972;-80
2023/05/29 05:43:40;;;;;;;;;;;;;;;;;;6212963;28;19988;-79
2023/05/29 05:47:09;;;;;;;;;;;;;;;;;;6213645;28;19981;-79
2023/05/29 05:50:14;;;;;;;;;;;;;;;;;;6212703;28;19985;-79
2023/05/29 05:53:21;;;;;;;;;;;;;;;;;;6213259;28;19977;-79
2023/05/29 05:56:26;;;;;;;;;;;;;;;;;;6212267;28;19985;-79
2023/05/29 05:59:31;;;;;;;;;;;;;;;;;;6212985;28;19977;-79
2023/05/29 06:02:36;;;;;;;;;;;;;;;;;;6214106;28;20025;-79
2023/05/29 06:05:42;;;;;;;1.00;1.00;;;;;;;;;;6214310;28;19989;-78
2023/05/29 06:08:49;;;;;;;3.00;1.30;;;;;;;;;;6214014;28;20289;-81
2023/05/29 06:11:54;;;;;;;1.15;1.13;;;;;;;;;;6215531;28;20301;-79
2023/05/29 06:15:01;;;;;;;1.85;1.20;;;;;;;;;;6211218;28;20297;-79
2023/05/29 06:18:06;;;;;;;;;;;;;;;;;;6212704;28;20293;-79
2023/05/29 06:21:12;;;;;;;1.10;1.00;;;;;;;;;;6211666;28;20573;-79
2023/05/29 06:24:25;;;;;;;1.98;1.33;;;;;;;;;;6211465;28;20144;-80
2023/05/29 06:27:32;;;;;;;1.10;1.10;;;;;;;;;;6212154;28;20293;-76
2023/05/29 06:30:37;;;;;;;1.25;1.20;;;;;;;;;;6212728;28;20297;-80
2023/05/29 06:33:45;;;;;;;1.35;1.05;;;;;;;;;;6213129;28;20310;-79
2023/05/29 06:36:51;;;;;;;4.90;1.38;;;;;;;;;;6212659;28;20296;-80
2023/05/29 06:39:57;;;;;;;3.22;1.30;;;;;;;;;;6212138;28;20297;-79
2023/05/29 06:43:03;;;;;;;1.20;1.10;;;;;;;;;;6211818;28;20306;-80
2023/05/29 06:46:15;;;;;;;1.95;1.35;;;;;;;;;;6210993;28;20304;-80
2023/05/29 06:49:21;;;;;;;7.18;1.50;;;;;;;;;;6211890;28;20293;-80
2023/05/29 06:52:26;;;;;;;8.18;1.10;;;;;;;;;;6211506;28;20289;-76
2023/05/29 06:55:51;;;;;;;1.45;1.02;;;;;;;;;;6212802;28;20287;-79
2023/05/29 06:58:58;;;;;;;3.95;1.10;;;;;;;;;;6211590;28;20293;-77
2023/05/29 07:02:07;;;;;;;1.15;1.10;;;;;;;;;;6210595;28;20306;-79
2023/05/29 07:05:12;;;;;;;1.98;1.02;;;;;;;;;;6211024;28;20292;-79
2023/05/29 07:08:17;;;;;;;6.32;1.23;;;;;;;;;;6212201;28;20304;-80
2023/05/29 07:11:25;;;;;;;1.27;1.27;;;;;;;;;;6214436;28;20479;-78
2023/05/29 07:14:30;;;;;;;2.10;1.10;;;;;;;;;;6210921;28;20293;-80
2023/05/29 07:17:36;;;;;;;6.22;1.10;;;;;;;;;;6212270;28;20301;-81
2023/05/29 07:20:51;;;;;;;2.83;1.17;;;;;;;;;;6210368;28;20309;-80
2023/05/29 07:23:58;;;;;;;4.47;1.13;;;;;;;;;;6210096;28;20300;-80
2023/05/29 07:27:06;;;;;;;1.10;1.00;;;;;;;;;;6211441;28;20301;-81
2023/05/29 07:30:13;;;;;;;1.00;1.00;;;;;;;;;;6210716;28;20625;-82
2023/05/29 07:33:20;;;;;;;3.17;1.00;;;;;;;;;;6209952;28;20308;-80
2023/05/29 07:36:32;;;;;;;1.13;1.10;;;;;;;;;;6209929;28;20301;-78
2023/05/29 07:39:41;;;;;;;3.42;1.50;;;;;;;;;;6209171;28;20501;-79
2023/05/29 07:43:15;;;;;;;1.48;1.20;;;;;;;;;;6195877;28;20292;-79
2023/05/29 07:46:25;;;;;;;1.83;1.30;;;;;;;;;;6209699;28;20435;-79
2023/05/29 07:49:43;;;;;;;3.88;1.40;;;;;;;;;;6208970;28;20302;-80
2023/05/29 07:52:49;;;;;;;2.20;1.15;;;;;;;;;;6209370;28;20585;-82
2023/05/29 07:55:54;;;;;;;6.28;1.10;;;;;;;;;;6209193;28;20301;-79
2023/05/29 07:59:01;;;;;;;1.70;1.10;;;;;;;;;;6212810;28;20420;-80
2023/05/29 08:02:07;;;;;;;6.93;1.30;;;;;;;;;;6210711;28;20313;-80
2023/05/29 08:05:31;;;;;;;3.95;1.30;;;;;;;;;;6209004;28;20289;-80
2023/05/29 08:08:39;;;;;;;2.42;1.30;;;;;;;;;;6208737;28;20321;-80
2023/05/29 08:11:46;;;;;;;1.88;1.13;;;;;;;;;;6211099;28;20293;-80
2023/05/29 08:14:53;;;;;;;1.42;1.30;;;;;;;;;;6208692;28;20292;-79
2023/05/29 08:17:58;;;;;;;2.28;1.40;;;;;;;;;;6210481;28;20293;-80
2023/05/29 08:21:03;;;;;;;5.22;1.45;;;;;;;;;;6210430;28;20309;-81
2023/05/29 08:24:10;;;;;;;6.30;1.30;;;;;;;;;;6210287;28;20301;-80
2023/05/29 08:27:16;;;;;;;3.80;1.20;;;;;;;;;;6210459;28;20373;-80
2023/05/29 08:30:22;;;;;;;3.20;1.30;;;;;;;;;;6209829;28;20297;-79
2023/05/29 08:33:28;;;;;;;3.00;1.40;;;;;;;;;;6210969;28;20288;-80
2023/05/29 08:36:33;;;;;;;1.67;1.27;;;;;;;;;;6209907;28;20309;-81
2023/05/29 08:39:38;;;;;;;7.30;1.45;;;;;;;;;;6210278;28;20592;-79
2023/05/29 08:42:48;;;;;;;2.35;1.20;;;;;;;;;;6210503;28;20481;-80
2023/05/29 08:45:56;;;;;;;1.55;1.17;;;;;;;;;;6209767;28;20317;-80
2023/05/29 08:49:03;;;;;;;0.90;0.90;;;;;;;;;;6211478;28;20365;-80
2023/05/29 08:52:13;;;;;;;1.27;1.17;;;;;;;;;;6212081;28;20293;-81
2023/05/29 08:55:18;;;;;;;7.25;1.30;;;;;;;;;;6211358;28;20301;-79
2023/05/29 08:58:24;;;;;;;2.25;1.25;;;;;;;;;;6211355;28;20328;-79
2023/05/29 09:01:31;;;;;;;2.53;1.20;;;;;;;;;;6209329;28;20293;-79
2023/05/29 09:04:36;;;;;;;1.67;1.33;;;;;;;;;;6209544;28;20293;-79
2023/05/29 09:07:41;;;;;;;0.88;0.88;;;;;;;;;;6194127;28;20298;-79
2023/05/29 09:10:47;;;;;;;1.48;1.42;;;;;;;;;;6194017;28;20332;-79
2023/05/29 09:13:53;;;;;;;11.65;2.10;;;;;;;;;;6208825;28;20297;-80
2023/05/29 09:17:00;;;;;;;1.00;1.00;;;;;;;;;;6209797;28;20282;-80
2023/05/29 09:20:17;;;;;;;8.38;1.15;;;;;;;;;;6212265;28;20306;-79
2023/05/29 09:23:23;;;;;;;4.18;1.33;;;;;;;;;;6209564;28;20294;-79
2023/05/29 09:26:28;;;;;;;3.25;0.93;;;;;;;;;;6209057;28;20292;-79
2023/05/29 09:29:33;;;;;;;2.80;1.10;;;;;;;;;;6209092;28;20293;-80
2023/05/29 09:32:42;;;;;;;3.75;1.20;;;;;;;;;;6209745;28;20294;-80
2023/05/29 09:35:48;;;;;;;3.60;1.00;;;;;;;;;;6208685;28;20301;-80
2023/05/29 09:38:53;;;;;;;1.33;1.23;;;;;;;;;;6208601;28;20293;-80
2023/05/29 09:42:11;;;;;;;1.50;1.30;;;;;;;;;;6213542;28;20294;-81
2023/05/29 09:45:19;;;;;;;3.58;1.23;;;;;;;;;;6213307;28;20297;-79
2023/05/29 09:48:26;;;;;;;1.42;1.05;;;;;;;;;;6213834;28;20598;-80
2023/05/29 09:51:32;;;;;;;5.35;1.20;;;;;;;;;;6213155;28;20297;-80
2023/05/29 09:54:38;;;;;;;1.30;1.20;;;;;;;;;;6212685;28;20289;-79
2023/05/29 09:57:43;;;;;;;2.13;1.20;;;;;;;;;;6213066;28;20293;-79
2023/05/29 10:00:49;;;;;;;3.25;1.20;;;;;;;;;;6213071;28;20313;-80
2023/05/29 10:03:55;;;;;;;1.73;0.95;;;;;;;;;;6210952;28;20308;-79
2023/05/29 10:07:06;;;;;;;1.50;1.10;;;;;;;;;;6213666;28;20289;-80
2023/05/29 10:10:14;;;;;;;5.88;1.00;;;;;;;;;;6214772;28;20293;-81
2023/05/29 10:13:19;;;;;;;1.40;1.02;;;;;;;;;;6213469;28;20293;-80
2023/05/29 10:16:26;;;;;;;1.40;1.30;;;;;;;;;;6212628;28;20297;-79
2023/05/29 10:19:34;;;;;;;1.92;1.30;;;;;;;;;;6211006;28;20376;-79
2023/05/29 10:22:42;;;;;;;1.45;1.35;;;;;;;;;;6212621;28;20269;-79
2023/05/29 10:25:49;;;;;;;3.80;1.30;;;;;;;;;;6212204;28;20293;-80
2023/05/29 10:29:00;;;;;;;3.80;1.00;;;;;;;;;;6212625;28;20301;-80
2023/05/29 10:32:20;;;;;;;3.58;1.40;;;;;;;;;;6212348;28;20361;-80
2023/05/29 10:35:31;;;;;;;3.92;1.00;;;;;;;;;;6212371;28;20312;-79
2023/05/29 10:38:37;;;;;;;10.23;1.23;;;;;;;;;;6212048;28;20304;-78
2023/05/29 10:41:42;;;;;;;2.60;1.25;;;;;;;;;;6212334;28;20289;-78
2023/05/29 10:44:47;;;;;;;4.00;1.13;;;;;;;;;;6211937;28;20292;-80
2023/05/29 10:47:52;;;;;;;2.63;1.17;;;;;;;;;;6212499;28;20292;-79
2023/05/29 10:50:59;;;;;;;1.10;1.10;;;;;;;;;;6211902;28;20313;-79
2023/05/29 10:54:07;;;;;;;2.90;0.98;;;;;;;;;;6212546;28;20396;-80
2023/05/29 10:57:14;;;;;;;2.95;1.17;;;;;;;;;;6213716;28;20296;-77
2023/05/29 11:00:23;;;;;;;1.40;1.30;;;;;;;;;;6214341;28;20304;-80
2023/05/29 11:03:33;;;;;;;2.58;1.13;;;;;;;;;;6212091;28;20313;-79
2023/05/29 11:06:40;;;;;;;6.53;1.20;;;;;;;;;;6210126;28;20304;-79
2023/05/29 11:09:49;;;;;;;3.35;1.17;;;;;;;;;;6210013;28;20293;-77
2023/05/29 11:12:59;;;;;;;12.68;1.50;;;;;;;;;;6236315;28;20478;-80
2023/05/29 11:16:11;;;;;;;5.72;1.27;;;;;;;;;;6238676;28;20296;-79
2023/05/29 11:19:17;;;;;;;7.78;1.40;;;;;;;;;;6236198;28;20316;-79
2023/05/29 11:22:28;;;;;;;7.53;1.23;;;;;;;;;;6236068;28;20304;-78
2023/05/29 11:25:36;;;;;;;2.47;1.33;;;;;;;;;;6233550;28;20296;-79
2023/05/29 11:28:41;;;;;;;1.48;1.33;;;;;;;;;;6235171;28;20272;-79
2023/05/29 11:31:47;;;;;;;4.55;1.13;;;;;;;;;;6234859;28;20300;-80
2023/05/29 11:34:56;;;;;;;3.58;1.35;;;;;;;;;;6235337;28;20293;-79
2023/05/29 11:38:02;;;;;;;3.25;1.73;;;;;;;;;;6235650;28;20281;-79
2023/05/29 11:41:08;;;;;;;1.98;1.40;;;;;;;;;;6234558;28;20299;-78
2023/05/29 11:44:15;;;;;;;2.97;1.30;;;;;;;;;;6234393;28;20304;-81
2023/05/29 11:47:22;;;;;;;18.45;2.58;;;;;;;;;;6235473;28;20300;-79
2023/05/29 11:50:29;;;;;;;2.38;1.17;;;;;;;;;;6233754;28;20304;-80
2023/05/29 11:53:35;;;;;;;2.67;1.20;;;;;;;;;;6234813;28;20390;-77
2023/05/29 11:56:41;;;;;;;4.85;1.02;;;;;;;;;;6234002;28;20292;-77
2023/05/29 11:59:47;;;;;;;5.63;1.20;;;;;;;;;;6234138;28;20592;-77
2023/05/29 12:02:52;;;;;;;3.92;0.98;;;;;;;;;;6233913;28;20326;-79
2023/05/29 12:05:58;;;;;;;0.93;0.93;;;;;;;;;;6234596;28;20432;-79
2023/05/29 12:09:05;;;;;;;5.15;1.73;;;;;;;;;;6233992;28;20553;-77
2023/05/29 12:12:12;;;;;;;3.85;1.10;;;;;;;;;;6231971;28;20569;-79
2023/05/29 12:15:18;;;;;;;4.22;1.30;;;;;;;;;;6234013;28;20292;-81
2023/05/29 12:18:23;;;;;;;3.90;1.48;;;;;;;;;;6234298;28;20304;-80
2023/05/29 12:21:29;;;;;;;6.60;1.60;;;;;;;;;;6233937;28;20576;-78
2023/05/29 12:24:36;;;;;;;6.07;1.33;;;;;;;;;;6233969;28;20300;-78
2023/05/29 12:27:49;;;;;;;1.73;1.10;;;;;;;;;;6234706;28;20593;-81
2023/05/29 12:31:00;;;;;;;1.85;1.10;;;;;;;;;;6233716;28;20304;-80
2023/05/29 12:34:10;;;;;;;18.30;1.80;;;;;;;;;;6233854;28;20292;-79
2023/05/29 12:37:15;;;;;;;4.28;1.88;;;;;;;;;;6234322;28;20376;-80
2023/05/29 12:40:23;;;;;;;27.95;2.92;;;;;;;;;;6233592;28;20296;-81
2023/05/29 12:43:28;;;;;;;19.92;2.15;;;;;;;;;;6233339;28;20272;-80
2023/05/29 12:46:38;;;;;;;3.78;1.15;;;;;;;;;;6233727;28;20296;-80
2023/05/29 12:49:44;;;;;;;1.55;1.20;;;;;;;;;;6233980;28;20310;-80
2023/05/29 12:52:58;;;;;;;2.35;1.20;;;;;;;;;;6234251;28;20288;-79
2023/05/29 12:56:04;;;;;;;5.53;1.15;;;;;;;;;;6233837;28;20310;-80
2023/05/29 12:59:10;;;;;;;8.02;1.48;;;;;;;;;;6233554;28;20486;-79
2023/05/29 13:02:15;;;;;;;3.80;1.10;;;;;;;;;;6233997;28;20308;-79
2023/05/29 13:05:22;;;;;;;5.43;1.30;;;;;;;;;;6233220;28;20291;-81
2023/05/29 13:08:28;;;;;;;8.15;1.30;;;;;;;;;;6234100;28;20292;-81
2023/05/29 13:11:34;;;;;;;4.53;1.55;;;;;;;;;;6234512;28;20296;-80
2023/05/29 13:14:42;;;;;;;7.03;1.65;;;;;;;;;;6234602;28;20292;-79
2023/05/29 13:17:47;;;;;;;6.85;1.50;;;;;;;;;;6238328;28;20300;-80
2023/05/29 13:20:52;;;;;;;7.53;1.45;;;;;;;;;;6238029;28;20316;-79
2023/05/29 13:23:57;;;;;;;13.00;2.17;;;;;;;;;;6238040;28;20292;-80
2023/05/29 13:27:05;;;;;;;5.85;1.65;;;;;;;;;;6240382;28;20288;-78
2023/05/29 13:30:13;;;;;;;6.75;1.45;;;;;;;;;;6239306;28;20304;-76
2023/05/29 13:33:18;;;;;;;4.60;1.65;;;;;;;;;;6238390;28;20296;-80
2023/05/29 13:36:23;;;;;;;7.72;1.40;;;;;;;;;;6238040;28;20305;-78
2023/05/29 13:39:29;;;;;;;3.33;1.20;;;;;;;;;;6237445;28;20592;-78
2023/05/29 13:42:36;;;;;;;3.47;1.50;;;;;;;;;;6237590;28;20529;-80
2023/05/29 13:45:43;;;;;;;4.75;1.77;;;;;;;;;;6235905;28;20296;-79
2023/05/29 13:48:48;;;;;;;;;;;;;;;;;;6237502;28;20125;-78
2023/05/29 13:51:53;;;;;;;;;;;;;;;;;;6238430;28;19995;-80
2023/05/29 13:55:01;;;;;;;;;;;;;;;;;;6236536;28;20110;-79
2023/05/29 13:58:08;;;;;;;1.77;1.27;;;;;;;;;;6238397;28;20274;-79
2023/05/29 14:01:15;;;;;;;6.25;1.30;;;;;;;;;;6237801;28;20296;-80
2023/05/29 14:04:20;;;;;;;1.60;1.30;;;;;;;;;;6236847;28;20296;-80
2023/05/29 14:07:25;;;;;;;5.13;1.20;;;;;;;;;;6237446;28;20288;-80
2023/05/29 14:10:30;;;;;;;1.45;1.25;;;;;;;;;;6234331;28;20296;-79
2023/05/29 14:13:37;;;;;;;1.40;1.00;;;;;;;;;;6236877;28;20265;-80
2023/05/29 14:16:44;;;;;;;1.00;1.00;;;;;;;;;;6236480;28;20276;-80
2023/05/29 14:19:49;;;;;;;3.65;1.15;;;;;;;;;;6236695;28;20292;-80
2023/05/29 14:22:55;;;;;;;3.28;1.08;;;;;;;;;;6237804;28;20405;-79
2023/05/29 14:26:00;;;;;;;0.90;0.90;;;;;;;;;;6235865;28;20304;-79
2023/05/29 14:29:07;;;;;;;4.15;1.38;;;;;;;;;;6236840;28;20288;-79
2023/05/29 14:32:19;;;;;;;2.00;1.30;;;;;;;;;;6236868;28;20293;-79
2023/05/29 14:35:24;;;;;;;2.53;1.17;;;;;;;;;;6235293;28;20300;-79
2023/05/29 14:38:29;;;;;;;2.15;1.30;;;;;;;;;;6237325;28;20473;-79
2023/05/29 14:41:35;;;;;;;1.40;1.40;;;;;;;;;;6236610;28;20305;-78
2023/05/29 14:44:42;;;;;;;2.33;1.20;;;;;;;;;;6236146;28;20426;-79
2023/05/29 14:47:47;;;;;;;5.35;1.10;;;;;;;;;;6236558;28;20300;-78
2023/05/29 14:50:52;;;;;;;1.10;1.10;;;;;;;;;;6236041;28;20432;-78
2023/05/29 14:53:57;;;;;;;11.40;1.98;;;;;;;;;;6236060;28;20320;-79
2023/05/29 14:57:03;;;;;;;6.93;1.45;;;;;;;;;;6236781;28;20292;-80
2023/05/29 15:00:10;;;;;;;2.58;1.20;;;;;;;;;;6236205;28;20292;-79
2023/05/29 15:03:16;;;;;;;5.95;1.25;;;;;;;;;;6236491;28;20296;-79
2023/05/29 15:06:21;;;;;;;2.03;1.70;;;;;;;;;;6236391;28;20319;-79
2023/05/29 15:09:26;;;;;;;7.07;1.60;;;;;;;;;;6236321;28;20429;-79
2023/05/29 15:12:32;;;;;;;7.30;1.58;;;;;;;;;;6235385;28;20295;-79
2023/05/29 15:15:38;;;;;;;6.60;1.60;;;;;;;;;;6236491;28;20514;-79
2023/05/29 15:18:52;;;;;;;4.90;1.50;;;;;;;;;;6235910;28;20305;-79
2023/05/29 15:21:57;;;;;;;10.43;1.65;;;;;;;;;;6235127;28;20380;-78
2023/05/29 15:25:02;;;;;;;3.08;1.25;;;;;;;;;;6235967;28;20300;-78
2023/05/29 15:28:08;;;;;;;2.53;1.20;;;;;;;;;;6236068;28;20292;-79
2023/05/29 15:31:14;;;;;;;2.78;1.08;;;;;;;;;;6235485;28;20300;-79
2023/05/29 15:34:19;;;;;;;8.48;1.15;;;;;;;;;;6234677;28;20297;-81
2023/05/29 15:37:25;;;;;;;1.60;1.20;;;;;;;;;;6234849;28;20296;-77
2023/05/29 15:40:30;;;;;;;1.88;1.77;;;;;;;;;;6235136;28;20556;-80
2023/05/29 15:43:35;;;;;;;3.45;1.60;;;;;;;;;;6235624;28;20289;-80
2023/05/29 15:46:41;;;;;;;2.53;1.30;;;;;;;;;;6238072;28;20454;-81
2023/05/29 15:49:46;;;;;;;1.10;1.10;;;;;;;;;;6234607;28;20316;-80
2023/05/29 15:52:52;;;;;;;3.75;1.27;;;;;;;;;;6237391;28;20463;-77
2023/05/29 15:56:00;;;;;;;2.13;1.15;;;;;;;;;;6234924;28;20296;-79
2023/05/29 15:59:05;;;;;;;2.38;1.17;;;;;;;;;;6234366;28;20292;-79
2023/05/29 16:02:13;;;;;;;4.28;1.40;;;;;;;;;;6234381;28;20297;-79
2023/05/29 16:05:19;;;;;;;4.32;1.30;;;;;;;;;;6234271;28;20608;-78
2023/05/29 16:08:26;;;;;;;2.88;1.40;;;;;;;;;;6234653;28;20292;-78
2023/05/29 16:11:31;;;;;;;3.85;1.02;;;;;;;;;;6232696;28;20296;-79
2023/05/29 16:14:37;;;;;;;3.20;1.38;;;;;;;;;;6234012;28;20288;-79
2023/05/29 16:17:43;;;;;;;1.60;1.50;;;;;;;;;;6233890;28;20445;-79
2023/05/29 16:20:50;;;;;;;3.60;1.08;;;;;;;;;;6234218;28;20288;-79
2023/05/29 16:23:57;;;;;;;4.70;1.30;;;;;;;;;;6233965;28;20348;-78
2023/05/29 16:27:03;;;;;;;2.88;1.05;;;;;;;;;;6234977;28;20307;-79
2023/05/29 16:30:12;;;;;;;5.15;1.27;;;;;;;;;;6233877;28;20288;-79
2023/05/29 16:33:18;;;;;;;5.85;1.38;;;;;;;;;;6234545;28;20300;-79
2023/05/29 16:36:24;;;;;;;4.22;1.27;;;;;;;;;;6233758;28;20296;-79
2023/05/29 16:39:32;;;;;;;1.60;1.10;;;;;;;;;;6233531;28;20288;-78
2023/05/29 16:42:37;;;;;;;1.55;1.10;;;;;;;;;;6273834;28;20439;-79
2023/05/29 16:45:43;;;;;;;2.70;1.48;;;;;;;;;;6284029;28;20299;-80
2023/05/29 16:48:53;;;;;;;2.92;1.25;;;;;;;;;;6267722;28;20295;-78
2023/05/29 16:51:58;;;;;;;7.57;1.23;;;;;;;;;;6288944;28;20303;-78
2023/05/29 16:55:04;;;;;;;2.75;1.20;;;;;;;;;;6288358;28;20298;-78
2023/05/29 16:58:13;;;;;;;1.85;1.35;;;;;;;;;;6289057;28;20283;-79
2023/05/29 17:01:20;;;;;;;5.78;1.10;;;;;;;;;;6270872;28;20456;-80
2023/05/29 17:04:27;;;;;;;5.78;1.88;;;;;;;;;;6287986;28;20302;-81
2023/05/29 17:07:33;;;;;;;4.97;1.50;;;;;;;;;;6287768;28;20271;-80
2023/05/29 17:10:39;;;;;;;1.48;1.35;;;;;;;;;;6286356;28;20290;-79
2023/05/29 17:13:44;;;;;;;1.90;1.50;;;;;;;;;;6287244;28;20520;-79
2023/05/29 17:16:49;;;;;;;6.60;2.10;;;;;;;;;;6287864;28;20287;-80
2023/05/29 17:19:56;;;;;;;4.93;1.60;;;;;;;;;;6287183;28;20283;-79
2023/05/29 17:23:01;;;;;;;4.75;1.30;;;;;;;;;;6287771;28;20291;-81
2023/05/29 17:26:06;;;;;;;7.07;1.42;;;;;;;;;;6286910;28;20299;-80
2023/05/29 17:29:15;;;;;;;1.98;1.88;;;;;;;;;;6286986;28;20287;-80
2023/05/29 17:32:22;;;;;;;8.77;2.65;;;;;;;;;;6287592;28;20315;-79
2023/05/29 17:35:28;;;;;;;2.80;2.70;;;;;;;;;;6287175;28;20295;-79
2023/05/29 17:38:33;;;;;;;1.63;1.50;;;;;;;;;;6287877;28;20300;-78
2023/05/29 17:41:38;;;;;;;5.70;1.33;;;;;;;;;;6277265;28;20291;-77
2023/05/29 17:44:44;;;;;;;3.88;1.85;;;;;;;;;;6273523;28;20290;-76
2023/05/29 17:47:49;;;;;;;3.53;1.92;;;;;;;;;;6287682;28;20298;-78
2023/05/29 17:50:56;;;;;;;3.92;1.88;;;;;;;;;;6289270;28;20295;-78
2023/05/29 17:54:03;;;;;;;4.85;1.65;;;;;;;;;;6288873;28;20458;-78
2023/05/29 17:57:08;;;;;;;9.70;1.60;;;;;;;;;;6288352;28;20315;-78
2023/05/29 18:00:15;;;;;;;3.75;1.10;;;;;;;;;;6287516;28;20303;-79
2023/05/29 18:03:20;;;;;;;1.85;1.17;;;;;;;;;;6287199;28;20295;-78
2023/05/29 18:06:27;;;;;;;4.25;1.08;;;;;;;;;;6269281;28;20295;-77
2023/05/29 18:09:32;;;;;;;1.45;1.45;;;;;;;;;;6287653;28;20295;-77
2023/05/29 18:12:37;;;;;;;6.30;1.33;;;;;;;;;;6285769;28;20288;-79
2023/05/29 18:15:49;;;;;;;1.48;1.15;;;;;;;;;;6287730;28;20299;-78
2023/05/29 18:18:55;;;;;;;3.95;1.33;;;;;;;;;;6286913;28;20307;-78
2023/05/29 18:22:02;;;;;;;6.13;1.30;;;;;;;;;;6287720;28;20290;-78
2023/05/29 18:25:08;;;;;;;4.53;1.27;;;;;;;;;;6288502;28;20299;-78
2023/05/29 18:28:13;;;;;;;6.97;1.85;;;;;;;;;;6287374;28;20298;-78
2023/05/29 18:31:19;;;;;;;10.30;1.50;;;;;;;;;;6286835;28;20291;-78
2023/05/29 18:34:24;;;;;;;1.70;1.30;;;;;;;;;;6286443;28;20430;-79
2023/05/29 18:37:31;;;;;;;2.08;1.45;;;;;;;;;;6285953;28;20271;-77
2023/05/29 18:40:36;;;;;;;1.30;1.20;;;;;;;;;;6286269;28;20323;-79
2023/05/29 18:43:41;;;;;;;5.07;1.35;;;;;;;;;;6285660;28;20286;-77
2023/05/29 18:46:46;;;;;;;2.50;1.45;;;;;;;;;;6286765;28;20464;-78